createdAt,value
2023-04-08T00:01:45.948Z,25.50
2023-04-08T00:06:48.907Z,25.50
2023-04-08T00:11:53.250Z,25.50
2023-04-08T00:16:56.222Z,25.30
2023-04-08T00:21:59.275Z,25.10
2023-04-08T00:27:03.850Z,25.10
2023-04-08T00:32:07.351Z,25.10
2023-04-08T00:37:10.457Z,25.00
2023-04-08T00:42:14.680Z,24.90
2023-04-08T00:47:17.601Z,24.90
2023-04-08T00:52:20.644Z,24.80
2023-04-08T00:57:24.922Z,24.80
2023-04-08T01:02:36.814Z,24.70
2023-04-08T01:07:47.021Z,24.70
2023-04-08T01:12:54.960Z,24.60
2023-04-08T01:17:59.929Z,24.60
2023-04-08T01:23:14.225Z,24.50
2023-04-08T01:28:21.128Z,24.40
2023-04-08T01:33:25.231Z,24.40
2023-04-08T01:38:28.988Z,24.40
2023-04-08T01:43:35.233Z,24.20
2023-04-08T01:48:39.228Z,24.20
2023-04-08T01:53:44.191Z,24.20
2023-04-08T01:58:54.034Z,24.10
2023-04-08T02:03:58.992Z,24.00
2023-04-08T02:09:02.531Z,24.00
2023-04-08T02:14:07.038Z,24.00
2023-04-08T02:19:21.057Z,23.90
2023-04-08T02:24:23.963Z,23.80
2023-04-08T02:29:30.965Z,23.80
2023-04-08T02:34:35.960Z,23.80
2023-04-08T02:39:39.000Z,23.80
2023-04-08T02:44:43.303Z,23.70
2023-04-08T02:49:46.356Z,23.70
2023-04-08T02:54:49.262Z,23.60
2023-04-08T02:59:53.493Z,23.60
2023-04-08T03:04:56.390Z,23.60
2023-04-08T03:09:59.515Z,23.50
2023-04-08T03:15:07.511Z,23.50
2023-04-08T03:20:11.567Z,23.40
2023-04-08T03:25:14.472Z,23.40
2023-04-08T03:30:18.749Z,23.40
2023-04-08T03:35:21.765Z,23.40
2023-04-08T03:40:24.648Z,23.30
2023-04-08T03:45:28.853Z,23.30
2023-04-08T03:50:31.803Z,23.30
2023-04-08T03:55:34.634Z,23.20
2023-04-08T04:00:38.844Z,23.10
2023-04-08T04:05:42.093Z,23.10
2023-04-08T04:10:45.015Z,23.10
2023-04-08T04:15:49.288Z,23.10
2023-04-08T04:20:52.191Z,23.00
2023-04-08T04:25:55.149Z,23.00
2023-04-08T04:30:59.357Z,23.00
2023-04-08T04:36:02.347Z,23.00
2023-04-08T04:41:05.580Z,23.00
2023-04-08T04:46:09.826Z,23.00
2023-04-08T04:51:12.725Z,23.00
2023-04-08T04:56:15.671Z,23.00
2023-04-08T05:01:19.990Z,23.00
2023-04-08T05:06:24.343Z,22.90
2023-04-08T05:11:27.293Z,22.90
2023-04-08T05:16:31.900Z,22.90
2023-04-08T05:21:34.955Z,22.90
2023-04-08T05:26:38.788Z,22.90
2023-04-08T05:31:43.154Z,22.80
2023-04-08T05:36:46.276Z,22.80
2023-04-08T05:41:49.186Z,22.80
2023-04-08T05:46:53.501Z,22.70
2023-04-08T05:51:56.443Z,22.70
2023-04-08T05:56:59.339Z,22.80
2023-04-08T06:02:03.731Z,23.00
2023-04-08T06:07:08.460Z,23.10
2023-04-08T06:12:11.386Z,23.20
2023-04-08T06:17:15.705Z,23.30
2023-04-08T06:22:18.576Z,23.30
2023-04-08T06:27:21.522Z,23.30
2023-04-08T06:32:25.947Z,23.30
2023-04-08T06:37:28.843Z,23.30
2023-04-08T06:42:31.785Z,23.30
2023-04-08T06:47:36.136Z,23.30
2023-04-08T06:52:39.065Z,23.40
2023-04-08T06:57:41.985Z,23.60
2023-04-08T07:02:46.381Z,23.60
2023-04-08T07:07:49.426Z,23.70
2023-04-08T07:12:52.602Z,23.70
2023-04-08T07:17:57.384Z,23.70
2023-04-08T07:23:00.335Z,23.60
2023-04-08T07:28:03.191Z,23.60
2023-04-08T07:33:07.546Z,23.60
2023-04-08T07:38:11.630Z,23.50
2023-04-08T07:43:14.534Z,23.40
2023-04-08T07:48:18.770Z,23.40
2023-04-08T07:53:23.460Z,23.40
2023-04-08T07:58:26.893Z,23.40
2023-04-08T08:03:33.686Z,23.40
2023-04-08T08:08:37.098Z,23.50
2023-04-08T08:13:40.005Z,23.40
2023-04-08T08:18:44.268Z,23.40
2023-04-08T08:23:47.234Z,23.30
2023-04-08T08:28:50.116Z,23.30
2023-04-08T08:33:54.325Z,23.20
2023-04-08T08:38:57.167Z,23.20
2023-04-08T08:44:01.391Z,23.30
2023-04-08T08:49:06.039Z,23.50
2023-04-08T08:54:09.452Z,23.60
2023-04-08T08:59:13.132Z,23.70
2023-04-08T09:04:20.120Z,23.70
2023-04-08T09:09:24.177Z,23.80
2023-04-08T09:14:27.308Z,23.90
2023-04-08T09:19:31.627Z,24.00
2023-04-08T09:24:34.941Z,24.10
2023-04-08T09:29:40.069Z,24.20
2023-04-08T09:34:44.491Z,24.30
2023-04-08T09:39:47.430Z,24.40
2023-04-08T09:44:50.557Z,24.60
2023-04-08T09:49:59.272Z,24.70
2023-04-08T09:55:05.091Z,24.90
2023-04-08T10:00:12.468Z,25.00
2023-04-08T10:05:19.328Z,25.00
2023-04-08T10:10:22.704Z,25.20
2023-04-08T10:15:27.492Z,25.40
2023-04-08T10:20:45.102Z,25.60
2023-04-08T10:25:48.815Z,25.80
2023-04-08T10:30:52.511Z,25.80
2023-04-08T10:36:03.088Z,25.80
2023-04-08T10:41:06.342Z,25.80
2023-04-08T10:46:12.083Z,25.90
2023-04-08T10:51:17.642Z,25.90
2023-04-08T10:56:21.962Z,25.90
2023-04-08T11:01:25.137Z,25.80
2023-04-08T11:06:30.824Z,25.80
2023-04-08T11:11:33.792Z,25.80
2023-04-08T11:16:38.189Z,25.80
2023-04-08T11:21:42.662Z,25.80
2023-04-08T11:26:45.689Z,25.80
2023-04-08T11:31:49.622Z,25.80
2023-04-08T11:36:53.944Z,25.80
2023-04-08T11:41:57.486Z,25.80
2023-04-08T11:47:02.312Z,25.80
2023-04-08T11:52:07.521Z,25.80
2023-04-08T11:57:10.888Z,25.80
2023-04-08T12:02:13.788Z,25.80
2023-04-08T12:07:18.823Z,25.80
2023-04-08T12:12:21.720Z,25.80
2023-04-08T12:17:24.715Z,25.80
2023-04-08T12:22:29.113Z,25.80
2023-04-08T12:27:33.465Z,25.80
2023-04-08T12:32:36.378Z,25.80
2023-04-08T12:37:40.588Z,25.80
2023-04-08T12:42:43.405Z,25.70
2023-04-08T12:47:46.353Z,25.70
2023-04-08T12:52:50.522Z,25.70
2023-04-08T12:57:53.541Z,25.80
2023-04-08T13:02:56.456Z,25.80
2023-04-08T13:08:01.026Z,25.80
2023-04-08T13:13:03.867Z,25.80
2023-04-08T13:18:06.824Z,25.80
2023-04-08T13:23:11.182Z,25.70
2023-04-08T13:28:14.192Z,25.70
2023-04-08T13:33:17.579Z,25.60
2023-04-08T13:38:21.809Z,25.50
2023-04-08T13:43:24.622Z,25.50
2023-04-08T13:48:27.528Z,25.60
2023-04-08T13:53:31.730Z,25.60
2023-04-08T13:58:34.689Z,25.70
2023-04-08T14:03:37.723Z,25.70
2023-04-08T14:08:42.829Z,25.60
2023-04-08T14:13:45.681Z,25.60
2023-04-08T14:18:48.707Z,25.60
2023-04-08T14:23:53.070Z,25.50
2023-04-08T14:28:55.894Z,25.40
2023-04-08T14:33:58.770Z,25.40
2023-04-08T14:39:03.472Z,25.40
2023-04-08T14:44:06.663Z,25.30
2023-04-08T14:49:09.493Z,25.20
2023-04-08T14:54:14.146Z,25.10
2023-04-08T14:59:16.973Z,25.10
2023-04-08T15:04:19.914Z,25.10
2023-04-08T15:09:24.408Z,25.00
2023-04-08T15:14:27.361Z,25.00
2023-04-08T15:19:30.437Z,24.90
2023-04-08T15:24:34.647Z,24.80
2023-04-08T15:29:37.603Z,24.80
2023-04-08T15:34:40.591Z,24.70
2023-04-08T15:39:45.696Z,24.70
2023-04-08T15:44:48.892Z,24.60
2023-04-08T15:49:53.425Z,24.60
2023-04-08T15:54:57.771Z,24.60
2023-04-08T16:00:00.690Z,24.70
2023-04-08T16:05:03.708Z,24.70
2023-04-08T16:10:09.212Z,24.70
2023-04-08T16:15:12.400Z,24.70
2023-04-08T16:20:15.316Z,24.60
2023-04-08T16:25:19.577Z,24.40
2023-04-08T16:30:22.481Z,24.40
2023-04-08T16:35:25.496Z,24.40
2023-04-08T16:40:33.035Z,24.40
2023-04-08T16:45:36.107Z,24.50
2023-04-08T16:50:39.088Z,24.60
2023-04-08T16:55:43.303Z,24.70
2023-04-08T17:00:46.425Z,24.80
2023-04-08T17:05:49.400Z,25.00
2023-04-08T17:10:53.982Z,25.30
2023-04-08T17:15:56.792Z,25.50
2023-04-08T17:20:59.958Z,25.80
2023-04-08T17:26:08.316Z,26.00
2023-04-08T17:31:11.494Z,26.10
2023-04-08T17:36:15.710Z,26.30
2023-04-08T17:41:38.144Z,26.30
2023-04-08T17:46:42.605Z,26.40
2023-04-08T17:51:45.426Z,26.50
2023-04-08T17:56:49.715Z,26.50
2023-04-08T18:01:52.653Z,26.50
2023-04-08T18:06:56.566Z,26.60
2023-04-08T18:12:00.772Z,26.70
2023-04-08T18:17:04.452Z,26.70
2023-04-08T18:22:07.418Z,26.80
2023-04-08T18:27:11.662Z,26.90
2023-04-08T18:32:14.590Z,26.90
2023-04-08T18:37:19.925Z,26.90
2023-04-08T18:42:24.115Z,26.90
2023-04-08T18:47:27.009Z,26.90
2023-04-08T18:52:32.067Z,26.80
2023-04-08T18:57:36.242Z,26.70
2023-04-08T19:02:39.176Z,26.60
2023-04-08T19:07:42.069Z,26.60
2023-04-08T19:12:46.568Z,26.50
2023-04-08T19:17:49.855Z,26.40
2023-04-08T19:22:52.680Z,26.40
2023-04-08T19:27:56.909Z,26.40
2023-04-08T19:32:59.810Z,26.30
2023-04-08T19:38:02.732Z,26.10
2023-04-08T19:43:07.056Z,26.10
2023-04-08T19:48:10.005Z,26.00
2023-04-08T19:53:12.900Z,25.90
2023-04-08T19:58:17.728Z,25.90
2023-04-08T20:03:21.069Z,25.90
2023-04-08T20:08:24.123Z,25.80
2023-04-08T20:13:29.012Z,25.80
2023-04-08T20:18:32.218Z,25.70
2023-04-08T20:23:36.194Z,25.60
2023-04-08T20:28:40.762Z,25.50
2023-04-08T20:33:45.397Z,25.50
2023-04-08T20:38:48.226Z,25.40
2023-04-08T20:43:54.129Z,25.40
2023-04-08T20:48:57.286Z,25.30
2023-04-08T20:54:00.221Z,25.20
2023-04-08T20:59:04.465Z,25.20
2023-04-08T21:04:07.417Z,25.10
2023-04-08T21:09:11.350Z,25.10
2023-04-08T21:14:15.886Z,25.00
2023-04-08T21:19:18.805Z,24.90
2023-04-08T21:24:21.722Z,24.80
2023-04-08T21:29:25.902Z,24.80
2023-04-08T21:34:28.780Z,24.70
2023-04-08T21:39:31.740Z,24.70
2023-04-08T21:44:36.486Z,24.60
2023-04-08T21:49:39.351Z,24.60
2023-04-08T21:54:42.218Z,24.50
2023-04-08T21:59:46.414Z,24.40
2023-04-08T22:04:49.323Z,24.30
2023-04-08T22:09:52.348Z,24.40
2023-04-08T22:14:56.764Z,24.30
2023-04-08T22:19:59.613Z,24.20
2023-04-08T22:25:02.507Z,24.20
2023-04-08T22:30:08.250Z,24.10
2023-04-08T22:35:11.092Z,24.00
2023-04-08T22:40:14.087Z,24.00
2023-04-08T22:45:18.267Z,23.90
2023-04-08T22:50:21.816Z,23.90
2023-04-08T22:55:24.643Z,23.80
2023-04-08T23:00:29.868Z,23.80
2023-04-08T23:05:32.926Z,23.80
2023-04-08T23:10:35.928Z,23.80
2023-04-08T23:15:40.155Z,23.70
2023-04-08T23:20:47.429Z,23.70
2023-04-08T23:25:50.303Z,23.60
2023-04-08T23:30:55.092Z,23.60
2023-04-08T23:35:57.961Z,23.60
2023-04-08T23:41:01.298Z,23.50
2023-04-08T23:46:05.578Z,23.50
2023-04-08T23:51:08.436Z,23.40
2023-04-08T23:56:11.374Z,23.40
